Terminal Aerodrome Forecast
Issued by NWS

Home | Current Version | Previous Version | Text Only | Print | Product List | Glossary Off
Versions: 1 2 3 4 5 6 7 8 9 10 11 12 13 14 15 16 17 18

000
FTUS43 KMPX 141100
TAFRWF
TAF
KRWF 141140Z 1412/1512 34014G22KT P6SM BKN150
     FM141900 33013G21KT P6SM BKN080
     FM150100 32009KT P6SM FEW080
     FM150700 30004KT P6SM SKC=

USA.gov is the U.S. government's official web portal to all federal, state and local government web resources and services.